createdAt,value
2017-12-11T00:03:31.868Z,6.10
2017-12-11T00:08:33.654Z,6.20
2017-12-11T00:13:35.955Z,6.40
2017-12-11T00:18:37.782Z,7.20
2017-12-11T00:23:39.578Z,6.70
2017-12-11T00:28:41.354Z,6.63
2017-12-11T00:33:43.117Z,4.80
2017-12-11T00:38:44.839Z,8.70
2017-12-11T00:43:46.711Z,12.10
2017-12-11T00:48:49.252Z,14.17
2017-12-11T00:53:51.031Z,16.70
2017-12-11T00:58:53.514Z,15.27
2017-12-11T01:03:55.296Z,18.73
2017-12-11T01:08:57.120Z,15.70
2017-12-11T01:13:58.858Z,14.93
2017-12-11T01:19:00.618Z,15.53
2017-12-11T01:24:03.169Z,12.60
2017-12-11T01:29:04.945Z,14.87
2017-12-11T01:34:06.721Z,16.67
2017-12-11T01:39:08.497Z,17.70
2017-12-11T01:44:10.299Z,17.60
2017-12-11T01:49:12.121Z,17.23
2017-12-11T01:54:13.966Z,20.93
2017-12-11T01:59:16.480Z,19.60
2017-12-11T02:04:19.055Z,18.33
2017-12-11T02:09:20.857Z,17.47
2017-12-11T02:14:22.607Z,17.43
2017-12-11T02:19:24.454Z,16.40
2017-12-11T02:24:26.234Z,16.97
2017-12-11T02:29:28.760Z,13.83
2017-12-11T02:34:31.189Z,15.00
2017-12-11T02:39:33.538Z,14.77
2017-12-11T02:44:35.558Z,15.90
2017-12-11T02:49:38.800Z,16.37
2017-12-11T02:54:40.842Z,14.60
2017-12-11T02:59:42.882Z,13.13
2017-12-11T03:04:44.627Z,13.63
2017-12-11T03:09:46.335Z,15.83
2017-12-11T03:14:48.092Z,12.60
2017-12-11T03:19:50.630Z,13.93
2017-12-11T03:24:52.399Z,15.73
2017-12-11T03:29:54.163Z,14.53
2017-12-11T03:34:55.904Z,13.10
2017-12-11T03:39:58.386Z,11.67
2017-12-11T03:45:00.103Z,11.90
2017-12-11T03:50:01.871Z,13.90
2017-12-11T03:55:03.721Z,10.57
2017-12-11T04:00:06.411Z,12.87
2017-12-11T04:05:08.130Z,12.33
2017-12-11T04:10:09.890Z,12.17
2017-12-11T04:15:12.416Z,12.10
2017-12-11T04:20:14.114Z,10.47
2017-12-11T04:25:15.835Z,10.30
2017-12-11T04:30:18.478Z,8.47
2017-12-11T04:35:21.492Z,9.90
2017-12-11T04:40:23.208Z,12.33
2017-12-11T04:45:25.708Z,9.77
2017-12-11T04:50:27.465Z,10.70
2017-12-11T04:55:29.228Z,10.43
2017-12-11T05:00:30.941Z,11.37
2017-12-11T05:05:32.742Z,10.13
2017-12-11T05:10:34.536Z,8.97
2017-12-11T05:15:36.321Z,10.50
2017-12-11T05:20:38.798Z,10.30
2017-12-11T05:25:40.567Z,10.67
2017-12-11T05:30:42.344Z,12.40
2017-12-11T05:35:44.803Z,11.57
2017-12-11T05:40:47.021Z,10.97
2017-12-11T05:45:49.686Z,11.53
2017-12-11T05:50:51.628Z,12.27
2017-12-11T05:55:53.531Z,13.50
2017-12-11T06:00:55.312Z,14.30
2017-12-11T06:05:57.010Z,12.60
2017-12-11T06:10:58.822Z,19.37
2017-12-11T06:16:00.618Z,17.73
2017-12-11T06:21:02.330Z,17.83
2017-12-11T06:26:04.931Z,15.23
2017-12-11T06:31:06.650Z,13.97
2017-12-11T06:36:09.186Z,14.07
2017-12-11T06:41:11.253Z,14.40
2017-12-11T06:46:12.982Z,15.97
2017-12-11T06:51:14.723Z,13.97
2017-12-11T06:56:16.514Z,16.43
2017-12-11T07:01:18.329Z,17.90
2017-12-11T07:06:22.076Z,26.67
2017-12-11T07:11:27.259Z,27.13
2017-12-11T07:16:32.244Z,24.70
2017-12-11T07:21:34.122Z,18.97
2017-12-11T07:26:39.722Z,15.40
2017-12-11T07:31:46.034Z,17.77
2017-12-11T07:36:54.288Z,15.57
2017-12-11T07:42:01.072Z,16.47
2017-12-11T07:47:06.272Z,16.13
2017-12-11T07:52:08.262Z,17.20
2017-12-11T07:57:13.442Z,20.70
2017-12-11T08:02:19.387Z,28.10
2017-12-11T08:07:23.664Z,18.17
2017-12-11T08:12:25.521Z,15.87
2017-12-11T08:17:27.985Z,16.17
2017-12-11T08:22:29.715Z,17.33
2017-12-11T08:27:31.447Z,18.43
2017-12-11T08:32:33.153Z,16.10
2017-12-11T08:37:34.934Z,17.20
2017-12-11T08:42:38.213Z,19.53
2017-12-11T08:47:40.029Z,16.80
2017-12-11T08:52:41.915Z,15.07
2017-12-11T08:57:43.666Z,17.30
2017-12-11T09:02:46.108Z,18.30
2017-12-11T09:07:47.825Z,15.83
2017-12-11T09:12:49.562Z,17.37
2017-12-11T09:17:51.292Z,16.00
2017-12-11T09:22:52.973Z,17.90
2017-12-11T09:27:55.406Z,15.80
2017-12-11T09:32:57.154Z,14.20
2017-12-11T09:37:59.033Z,17.67
2017-12-11T09:43:00.781Z,19.40
2017-12-11T09:48:03.295Z,18.77
2017-12-11T09:53:05.848Z,17.13
2017-12-11T09:58:07.587Z,18.60
2017-12-11T10:03:09.328Z,16.50
2017-12-11T10:08:11.057Z,17.50
2017-12-11T10:13:12.750Z,18.07
2017-12-11T10:18:14.582Z,17.87
2017-12-11T10:23:16.345Z,15.20
2017-12-11T10:28:19.173Z,19.27
2017-12-11T10:33:20.961Z,20.90
2017-12-11T10:38:22.755Z,17.93
2017-12-11T10:43:24.481Z,18.80
2017-12-11T10:48:26.173Z,16.53
2017-12-11T10:53:28.051Z,15.30
2017-12-11T10:58:30.513Z,16.57
2017-12-11T11:03:32.254Z,18.43
2017-12-11T11:08:33.999Z,18.67
2017-12-11T11:13:36.514Z,21.87
2017-12-11T11:18:38.621Z,35.90
2017-12-11T11:23:40.576Z,36.40
2017-12-11T11:28:42.367Z,23.97
2017-12-11T11:33:44.026Z,34.60
2017-12-11T11:38:45.883Z,28.47
2017-12-11T11:43:47.624Z,38.43
2017-12-11T11:48:49.411Z,79.63
2017-12-11T11:53:51.265Z,40.27
2017-12-11T11:58:54.000Z,47.33
2017-12-11T12:03:58.693Z,59.27
2017-12-11T12:09:01.726Z,52.87
2017-12-11T12:14:06.736Z,38.67
2017-12-11T12:19:11.160Z,35.83
2017-12-11T12:24:13.904Z,46.13
2017-12-11T12:29:17.594Z,40.70
2017-12-11T12:34:19.349Z,39.07
2017-12-11T12:39:23.912Z,35.07
2017-12-11T12:44:27.630Z,39.43
2017-12-11T12:49:31.678Z,39.83
2017-12-11T12:54:35.661Z,32.33
2017-12-11T12:59:40.404Z,52.70
2017-12-11T13:04:42.849Z,48.67
2017-12-11T13:09:44.503Z,51.50
2017-12-11T13:14:46.200Z,27.53
2017-12-11T13:19:47.958Z,32.03
2017-12-11T13:24:49.693Z,45.40
2017-12-11T13:29:51.459Z,46.50
2017-12-11T13:34:53.174Z,41.70
2017-12-11T13:39:54.918Z,50.73
2017-12-11T13:44:56.641Z,35.00
2017-12-11T13:49:58.365Z,36.07
2017-12-11T13:55:01.114Z,35.43
2017-12-11T14:00:03.678Z,31.00
2017-12-11T14:05:05.389Z,26.30
2017-12-11T14:10:07.184Z,25.67
2017-12-11T14:15:09.025Z,23.90
2017-12-11T14:20:10.722Z,23.10
2017-12-11T14:25:12.555Z,24.20
2017-12-11T14:30:14.247Z,24.10
2017-12-11T14:35:16.109Z,24.30
2017-12-11T14:40:18.382Z,31.37
2017-12-11T14:45:20.117Z,23.00
2017-12-11T14:50:24.228Z,19.63
2017-12-11T14:55:26.366Z,18.60
2017-12-11T15:00:28.045Z,16.80
2017-12-11T15:05:29.850Z,19.87
2017-12-11T15:10:31.670Z,26.97
2017-12-11T15:15:33.940Z,23.87
2017-12-11T15:20:36.809Z,29.30
2017-12-11T15:25:38.794Z,30.33
2017-12-11T15:30:40.594Z,22.73
2017-12-11T15:35:42.449Z,28.97
2017-12-11T15:40:44.173Z,30.57
2017-12-11T15:45:45.974Z,25.73
2017-12-11T15:50:47.698Z,28.37
2017-12-11T15:55:49.536Z,32.43
2017-12-11T16:00:51.302Z,31.43
2017-12-11T16:05:53.014Z,24.47
2017-12-11T16:10:54.731Z,28.33
2017-12-11T16:15:56.543Z,29.37
2017-12-11T16:20:58.233Z,27.63
2017-12-11T16:26:00.282Z,32.87
2017-12-11T16:31:02.004Z,31.60
2017-12-11T16:36:03.978Z,36.37
2017-12-11T16:41:05.713Z,32.77
2017-12-11T16:46:07.518Z,30.83
2017-12-11T16:51:10.307Z,36.50
2017-12-11T16:56:12.006Z,40.43
2017-12-11T17:01:13.773Z,43.33
2017-12-11T17:06:16.291Z,41.83
2017-12-11T17:11:18.990Z,42.57
2017-12-11T17:16:21.506Z,41.00
2017-12-11T17:21:23.284Z,37.47
2017-12-11T17:26:24.981Z,42.73
2017-12-11T17:31:26.721Z,43.17
2017-12-11T17:36:28.540Z,41.30
2017-12-11T17:41:31.110Z,45.57
2017-12-11T17:46:32.882Z,45.37
2017-12-11T17:51:34.672Z,50.73
2017-12-11T17:56:36.481Z,47.33
2017-12-11T18:01:38.241Z,50.77
2017-12-11T18:06:39.970Z,50.33
2017-12-11T18:11:41.947Z,55.97
2017-12-11T18:16:43.667Z,60.77
2017-12-11T18:21:47.020Z,51.57
2017-12-11T18:26:48.828Z,56.90
2017-12-11T18:31:50.518Z,58.70
2017-12-11T18:36:52.219Z,56.33
2017-12-11T18:41:53.921Z,56.70
2017-12-11T18:46:56.060Z,57.47
2017-12-11T18:51:57.754Z,55.10
2017-12-11T18:56:59.492Z,61.00
2017-12-11T19:02:01.254Z,54.47
2017-12-11T19:07:03.013Z,63.87
2017-12-11T19:12:06.555Z,68.17
2017-12-11T19:17:08.277Z,72.80
2017-12-11T19:22:10.106Z,60.87
2017-12-11T19:27:11.872Z,55.23
2017-12-11T19:32:14.031Z,57.23
2017-12-11T19:37:16.163Z,62.90
2017-12-11T19:42:19.372Z,53.80
2017-12-11T19:47:21.096Z,51.47
2017-12-11T19:52:22.830Z,55.30
2017-12-11T19:57:24.582Z,57.40
2017-12-11T20:02:27.660Z,51.17
2017-12-11T20:07:29.866Z,49.70
2017-12-11T20:12:32.251Z,49.30
2017-12-11T20:17:35.006Z,49.20
2017-12-11T20:22:37.061Z,54.17
2017-12-11T20:27:40.847Z,56.37
2017-12-11T20:32:42.649Z,52.27
2017-12-11T20:37:45.447Z,56.13
2017-12-11T20:42:47.890Z,57.00
2017-12-11T20:47:50.505Z,57.33
2017-12-11T20:52:52.710Z,50.50
2017-12-11T20:57:54.547Z,65.70
2017-12-11T21:02:56.256Z,64.40
2017-12-11T21:07:58.014Z,65.87
2017-12-11T21:12:59.763Z,55.80
2017-12-11T21:18:01.734Z,52.53
2017-12-11T21:23:03.549Z,48.87
2017-12-11T21:28:05.332Z,50.90
2017-12-11T21:33:07.075Z,49.17
2017-12-11T21:38:08.842Z,53.67
2017-12-11T21:43:10.644Z,48.80
2017-12-11T21:48:12.630Z,52.43
2017-12-11T21:53:14.519Z,53.33
2017-12-11T21:58:16.263Z,53.40
2017-12-11T22:03:18.002Z,49.40
2017-12-11T22:08:19.798Z,40.60
2017-12-11T22:13:22.291Z,35.90
2017-12-11T22:18:24.005Z,35.57
2017-12-11T22:23:25.723Z,30.43
2017-12-11T22:28:27.483Z,30.07
2017-12-11T22:33:29.186Z,41.97
2017-12-11T22:38:30.895Z,40.27
2017-12-11T22:43:33.354Z,44.73
2017-12-11T22:48:35.064Z,38.57
2017-12-11T22:53:36.894Z,32.30
2017-12-11T22:58:38.665Z,31.80
2017-12-11T23:03:40.414Z,35.77
2017-12-11T23:08:43.374Z,36.87
2017-12-11T23:13:45.122Z,27.20
2017-12-11T23:18:46.803Z,29.33
2017-12-11T23:23:48.497Z,28.40
2017-12-11T23:28:50.315Z,30.13
2017-12-11T23:33:52.049Z,28.13
2017-12-11T23:38:53.776Z,22.07
2017-12-11T23:43:55.568Z,27.47
2017-12-11T23:48:57.333Z,45.73
2017-12-11T23:54:12.022Z,22.77
2017-12-11T23:59:13.815Z,19.67
